Time;durP1;ratioP1;P1;durP2;ratioP2;P2;SDS_P1;SDS_P2;PMS_P1;PMS_P2;Temp;Humidity;BMP_temperature;BMP_pressure;BME280_temperature;BME280_humidity;BME280_pressure;Samples;Min_cycle;Max_cycle;Signal;HPM_P1;HPM_P2
2022/04/25 00:02:07;;;;;;;12.10;6.05;;;;;;;9.28;66.29;100795.91;5051573;28;20290;-62
2022/04/25 00:04:32;;;;;;;9.27;5.70;;;;;;;9.24;66.42;100800.53;5051626;28;20045;-63
2022/04/25 00:06:57;;;;;;;8.00;6.07;;;;;;;9.25;66.27;100796.94;5051579;28;20041;-62
2022/04/25 00:09:23;;;;;;;12.98;6.35;;;;;;;9.21;66.53;100796.31;5051989;28;20033;-62
2022/04/25 00:11:48;;;;;;;10.35;5.95;;;;;;;9.17;66.48;100797.47;5051552;28;20037;-62
2022/04/25 00:14:14;;;;;;;12.75;5.97;;;;;;;9.15;66.42;100804.69;5051262;28;20075;-62
2022/04/25 00:16:40;;;;;;;10.82;6.13;;;;;;;9.08;66.87;100798.16;5051435;28;20420;-62
2022/04/25 00:19:05;;;;;;;14.23;6.47;;;;;;;9.06;66.84;100806.22;5051255;28;20040;-62
2022/04/25 00:21:30;;;;;;;9.35;6.45;;;;;;;9.01;66.93;100813.63;5049909;28;20037;-62
2022/04/25 00:23:57;;;;;;;10.90;6.10;;;;;;;8.92;67.11;100806.31;5051554;28;20037;-62
2022/04/25 00:26:22;;;;;;;11.40;6.28;;;;;;;8.91;67.14;100809.94;5051484;28;20068;-62
2022/04/25 00:28:47;;;;;;;12.73;6.77;;;;;;;8.87;67.47;100811.94;5051276;28;20040;-63
2022/04/25 00:31:13;;;;;;;12.33;6.20;;;;;;;8.86;67.26;100818.22;5055063;28;20342;-62
2022/04/25 00:33:39;;;;;;;11.00;6.72;;;;;;;8.83;67.60;100801.69;5071141;28;20275;-62
2022/04/25 00:36:04;;;;;;;10.05;6.68;;;;;;;8.77;68.00;100808.25;5070892;28;20032;-63
2022/04/25 00:38:30;;;;;;;9.43;6.35;;;;;;;8.76;67.57;100806.56;5069198;28;20109;-63
2022/04/25 00:40:55;;;;;;;9.30;6.47;;;;;;;8.70;67.79;100807.00;5050851;28;20116;-62
2022/04/25 00:43:20;;;;;;;9.77;6.85;;;;;;;8.69;68.55;100806.16;5049411;28;20044;-62
2022/04/25 00:45:45;;;;;;;11.15;7.07;;;;;;;8.64;68.60;100804.75;5050854;28;20041;-62
2022/04/25 00:48:11;;;;;;;8.40;6.20;;;;;;;8.63;68.47;100801.28;5050811;28;20036;-62
2022/04/25 00:50:38;;;;;;;12.57;7.28;;;;;;;8.58;68.49;100799.91;5051227;28;20076;-61
2022/04/25 00:53:04;;;;;;;11.38;7.05;;;;;;;8.56;68.52;100800.00;5050744;28;20483;-61
2022/04/25 00:55:30;;;;;;;10.45;7.43;;;;;;;8.53;68.85;100802.88;5050326;28;20108;-62
2022/04/25 00:57:56;;;;;;;12.23;7.03;;;;;;;8.49;68.99;100793.41;5049454;28;20078;-62
2022/04/25 01:00:22;;;;;;;11.23;7.03;;;;;;;8.47;69.10;100801.47;5050548;28;20037;-62
2022/04/25 01:02:48;;;;;;;11.93;6.88;;;;;;;8.43;68.57;100802.66;5052088;28;20079;-61
2022/04/25 01:05:13;;;;;;;11.68;6.80;;;;;;;8.34;69.51;100806.75;5051613;28;20055;-62
2022/04/25 01:07:39;;;;;;;12.98;7.65;;;;;;;8.34;69.01;100803.22;5050973;28;20486;-62
2022/04/25 01:10:05;;;;;;;11.32;7.03;;;;;;;8.28;69.55;100801.84;5050629;28;20033;-62
2022/04/25 01:12:31;;;;;;;11.32;7.20;;;;;;;8.20;69.84;100801.53;5050874;28;20095;-62
2022/04/25 01:14:58;;;;;;;11.43;7.38;;;;;;;8.20;70.18;100798.03;5050432;28;20625;-62
2022/04/25 01:17:23;;;;;;;13.00;7.60;;;;;;;8.18;70.17;100806.06;5050870;28;20549;-62
2022/04/25 01:19:48;;;;;;;13.48;8.15;;;;;;;8.14;70.42;100807.22;5050383;28;20037;-62
2022/04/25 01:22:14;;;;;;;14.68;7.40;;;;;;;8.14;70.38;100804.56;5049203;28;20544;-62
2022/04/25 01:27:24;;;;;;;12.35;7.80;;;;;;;8.08;70.85;100795.25;5050494;28;20051;-62
2022/04/25 01:29:52;;;;;;;12.52;7.82;;;;;;;8.09;69.92;100798.75;5049220;28;20032;-62
2022/04/25 01:32:18;;;;;;;11.43;7.50;;;;;;;8.04;70.37;100796.41;5049872;28;20037;-63
2022/04/25 01:34:44;;;;;;;13.38;7.50;;;;;;;8.02;70.24;100795.66;5049982;28;20051;-62
2022/04/25 01:37:14;;;;;;;11.80;7.90;;;;;;;8.00;70.78;100794.91;5049625;28;20029;-64
2022/04/25 01:39:43;;;;;;;13.43;7.97;;;;;;;7.92;71.56;100799.88;5049981;28;20037;-63
2022/04/25 01:42:09;;;;;;;11.95;7.57;;;;;;;7.91;71.02;100801.69;5048601;28;20469;-62
2022/04/25 01:44:35;;;;;;;9.65;7.38;;;;;;;7.84;70.76;100808.28;5050260;28;20030;-63
2022/04/25 01:47:01;;;;;;;15.20;8.02;;;;;;;7.82;71.30;100806.72;5050421;28;20395;-63
2022/04/25 01:49:27;;;;;;;13.70;8.07;;;;;;;7.74;71.90;100801.91;5050398;28;20033;-62
2022/04/25 01:51:52;;;;;;;15.32;8.57;;;;;;;7.74;71.28;100810.72;5060012;28;20037;-62
2022/04/25 01:54:26;;;;;;;9.98;7.95;;;;;;;7.73;71.49;100805.53;5053074;28;20499;-63
2022/04/25 01:56:53;;;;;;;14.95;8.65;;;;;;;7.69;71.48;100807.50;5057618;28;20383;-61
2022/04/25 01:59:18;;;;;;;15.18;8.10;;;;;;;7.68;71.75;100807.63;5057650;28;20025;-62
2022/04/25 02:01:44;;;;;;;15.63;7.75;;;;;;;7.66;72.23;100812.16;5055739;28;20036;-62
2022/04/25 02:04:09;;;;;;;12.18;8.35;;;;;;;7.64;72.12;100814.03;5057152;28;20140;-62
2022/04/25 02:06:34;;;;;;;13.23;8.50;;;;;;;7.63;72.14;100805.28;5055508;28;20084;-62
2022/04/25 02:09:00;;;;;;;12.27;8.52;;;;;;;7.63;72.30;100804.41;5057400;28;20068;-63
2022/04/25 02:11:25;;;;;;;11.90;8.55;;;;;;;7.57;72.30;100805.66;5057626;28;20680;-62
2022/04/25 02:13:52;;;;;;;15.18;9.15;;;;;;;7.58;72.24;100802.94;5057918;28;20118;-61
2022/04/25 02:16:18;;;;;;;12.50;8.07;;;;;;;7.57;72.64;100811.78;5059020;28;20029;-62
2022/04/25 02:18:43;;;;;;;13.88;9.00;;;;;;;7.54;72.67;100806.72;5058270;28;20037;-62
2022/04/25 02:21:09;;;;;;;17.83;8.80;;;;;;;7.52;72.30;100803.31;5055584;28;20498;-62
2022/04/25 02:23:34;;;;;;;12.23;8.43;;;;;;;7.49;72.53;100797.38;5059102;28;20033;-62
2022/04/25 02:26:00;;;;;;;11.68;9.18;;;;;;;7.44;72.88;100802.13;5097632;22;20110;-54
2022/04/25 02:28:25;;;;;;;12.07;9.00;;;;;;;7.42;72.85;100802.22;5105566;28;20027;-55
2022/04/25 02:30:51;;;;;;;12.10;8.82;;;;;;;7.42;73.11;100802.22;5110167;28;20044;-55
2022/04/25 02:33:17;;;;;;;13.15;8.60;;;;;;;7.39;73.39;100805.03;5104868;28;20067;-55
2022/04/25 02:35:42;;;;;;;12.18;9.00;;;;;;;7.38;73.39;100798.09;5112046;28;20074;-55
2022/04/25 02:38:08;;;;;;;13.32;9.60;;;;;;;7.33;73.38;100802.81;5092494;28;20438;-54
2022/04/25 02:40:33;;;;;;;10.75;8.65;;;;;;;7.33;73.12;100794.91;5093574;28;20047;-55
2022/04/25 02:42:58;;;;;;;11.50;8.50;;;;;;;7.32;73.18;100804.59;5093744;28;20046;-54
2022/04/25 02:45:23;;;;;;;13.18;9.40;;;;;;;7.29;72.76;100801.31;5093763;28;20274;-55
2022/04/25 02:47:48;;;;;;;13.52;9.10;;;;;;;7.24;73.84;100801.59;5093420;28;20063;-55
2022/04/25 02:50:14;;;;;;;11.50;9.15;;;;;;;7.25;74.06;100800.66;5093070;28;20040;-55
2022/04/25 02:52:39;;;;;;;12.93;8.63;;;;;;;7.23;73.95;100798.09;5093058;28;20032;-55
2022/04/25 02:55:05;;;;;;;16.50;9.68;;;;;;;7.21;73.35;100799.13;5092016;28;20036;-54
2022/04/25 02:57:30;;;;;;;13.80;9.48;;;;;;;7.14;73.11;100798.66;5092085;28;20063;-55
2022/04/25 02:59:55;;;;;;;13.15;9.25;;;;;;;7.15;73.38;100796.91;5096488;28;20031;-54
2022/04/25 03:02:21;;;;;;;12.93;8.90;;;;;;;7.14;73.57;100795.19;5113065;28;20092;-55
2022/04/25 03:04:46;;;;;;;14.32;9.88;;;;;;;7.11;74.20;100792.75;5112739;28;20751;-55
2022/04/25 03:07:12;;;;;;;13.52;9.38;;;;;;;7.08;73.93;100804.38;5113041;28;20043;-55
2022/04/25 03:09:38;;;;;;;12.32;9.75;;;;;;;7.07;74.02;100802.66;5096906;28;20043;-56
2022/04/25 03:12:04;;;;;;;14.88;9.65;;;;;;;7.01;73.18;100803.03;5093060;28;20032;-55
2022/04/25 03:14:29;;;;;;;15.68;9.98;;;;;;;6.95;74.43;100804.28;5092795;28;20036;-55
2022/04/25 03:16:54;;;;;;;17.67;10.07;;;;;;;6.94;74.44;100797.28;5092734;28;20422;-55
2022/04/25 03:19:20;;;;;;;13.38;9.68;;;;;;;6.87;74.62;100803.06;5092500;28;20386;-55
2022/04/25 03:21:45;;;;;;;13.95;10.05;;;;;;;6.83;74.82;100799.75;5092720;28;20110;-55
2022/04/25 03:24:11;;;;;;;12.85;9.50;;;;;;;6.83;75.16;100802.41;5092663;28;20549;-55
2022/04/25 03:26:37;;;;;;;17.05;10.20;;;;;;;6.78;75.10;100801.84;5092513;28;20052;-55
2022/04/25 03:29:02;;;;;;;14.85;10.38;;;;;;;6.79;75.16;100799.06;5093208;28;20044;-55
2022/04/25 03:31:27;;;;;;;12.57;9.55;;;;;;;6.79;75.08;100800.88;5092717;28;20097;-54
2022/04/25 03:33:53;;;;;;;14.68;10.45;;;;;;;6.77;75.27;100808.88;5095003;28;20075;-55
2022/04/25 03:36:18;;;;;;;14.23;10.35;;;;;;;6.75;75.46;100807.31;5112974;28;20047;-55
2022/04/25 03:38:44;;;;;;;11.98;9.75;;;;;;;6.72;75.67;100808.31;5075158;28;20071;-55
2022/04/25 03:41:10;;;;;;;15.20;9.55;;;;;;;6.71;75.77;100809.28;5092632;28;20481;-55
2022/04/25 03:43:35;;;;;;;16.10;11.10;;;;;;;6.70;75.39;100810.22;5092157;28;20040;-55
2022/04/25 03:46:01;;;;;;;17.95;10.57;;;;;;;6.65;75.79;100805.22;5092121;28;20086;-55
2022/04/25 03:48:26;;;;;;;12.25;10.73;;;;;;;6.60;75.96;100812.56;5092580;28;20078;-55
2022/04/25 03:50:51;;;;;;;13.25;9.68;;;;;;;6.62;75.63;100813.31;5092160;28;20032;-56
2022/04/25 03:53:16;;;;;;;17.38;9.88;;;;;;;6.58;75.47;100811.81;5092062;28;20470;-56
2022/04/25 03:58:27;;;;;;;17.38;11.18;;;;;;;6.55;75.87;100817.25;5091798;28;20066;-57
2022/04/25 04:00:52;;;;;;;16.00;10.70;;;;;;;6.52;75.85;100817.44;5091710;28;20048;-56
2022/04/25 04:03:18;;;;;;;16.20;9.77;;;;;;;6.51;75.45;100823.66;5073375;28;20081;-55
2022/04/25 04:05:45;;;;;;;16.65;10.18;;;;;;;6.49;75.67;100817.63;5092040;28;20031;-55
2022/04/25 04:08:10;;;;;;;12.88;10.18;;;;;;;6.47;75.47;100820.34;5091796;28;20063;-55
2022/04/25 04:10:35;;;;;;;15.18;11.00;;;;;;;6.41;75.99;100826.03;5091545;28;20489;-55
2022/04/25 04:13:01;;;;;;;18.08;10.52;;;;;;;6.40;76.14;100826.94;5090966;28;20039;-54
2022/04/25 04:15:26;;;;;;;15.27;10.40;;;;;;;6.40;75.67;100826.94;5091548;28;20113;-55
2022/04/25 04:17:51;;;;;;;17.42;10.45;;;;;;;6.35;75.92;100823.72;5091226;28;20040;-55
2022/04/25 04:20:17;;;;;;;18.23;10.27;;;;;;;6.36;75.81;100835.13;5090641;28;20047;-55
2022/04/25 04:22:42;;;;;;;16.00;10.48;;;;;;;6.34;75.33;100829.09;5091419;28;20039;-55
2022/04/25 04:25:12;;;;;;;15.00;11.13;;;;;;;6.28;76.00;100833.78;5091472;28;20548;-55
2022/04/25 04:27:42;;;;;;;14.70;10.07;;;;;;;6.24;76.17;100834.91;5091415;28;20535;-54
2022/04/25 04:30:10;;;;;;;17.17;11.00;;;;;;;6.20;75.77;100833.41;5091287;28;20557;-55
2022/04/25 04:32:38;;;;;;;16.33;11.80;;;;;;;6.15;76.63;100837.25;5091201;28;20032;-54
2022/04/25 04:35:06;;;;;;;18.05;11.02;;;;;;;6.18;76.71;100834.41;5090903;28;20074;-54
2022/04/25 04:37:33;;;;;;;19.70;11.98;;;;;;;6.14;76.98;100846.09;5091028;28;20496;-54
2022/04/25 04:42:42;;;;;;;18.10;11.60;;;;;;;6.13;77.31;100844.38;5093085;28;20472;-54
2022/04/25 04:45:08;;;;;;;21.27;13.13;;;;;;;6.13;77.24;100845.25;5101209;28;20126;-55
2022/04/25 04:47:38;;;;;;;19.92;11.93;;;;;;;6.14;77.57;100851.38;5110277;28;20039;-55
2022/04/25 04:50:05;;;;;;;16.05;11.50;;;;;;;6.14;77.29;100848.72;5092356;28;20032;-55
2022/04/25 04:52:31;;;;;;;15.95;11.63;;;;;;;6.15;77.36;100846.00;5091979;28;20043;-55
2022/04/25 04:54:56;;;;;;;14.75;11.35;;;;;;;6.13;77.26;100844.38;5092210;28;20169;-55
2022/04/25 04:57:22;;;;;;;18.85;12.15;;;;;;;6.15;77.10;100851.28;5092361;28;20119;-56
2022/04/25 04:59:47;;;;;;;13.77;11.70;;;;;;;6.15;77.63;100868.91;5092176;28;20366;-56
2022/04/25 05:02:17;;;;;;;18.00;11.95;;;;;;;6.16;77.13;100868.81;5092188;28;20051;-55
2022/04/25 05:04:42;;;;;;;16.92;12.13;;;;;;;6.15;77.87;100867.09;5092251;28;20556;-55
2022/04/25 05:07:08;;;;;;;14.63;11.30;;;;;;;6.18;77.48;100871.34;5092278;28;20024;-55
2022/04/25 05:09:33;;;;;;;17.92;12.25;;;;;;;6.15;77.95;100868.91;5073911;28;20127;-55
2022/04/25 05:11:58;;;;;;;20.60;12.40;;;;;;;6.16;78.50;100878.50;5090698;28;20047;-55
2022/04/25 05:14:23;;;;;;;17.58;12.52;;;;;;;6.16;78.48;100876.72;5091846;28;20037;-55
2022/04/25 05:16:49;;;;;;;18.08;12.40;;;;;;;6.17;79.14;100885.47;5073977;28;20044;-55
2022/04/25 05:19:14;;;;;;;20.40;12.70;;;;;;;6.20;78.71;100882.66;5091774;28;20040;-55
2022/04/25 05:21:39;;;;;;;17.08;12.35;;;;;;;6.22;79.14;100886.06;5112068;28;20389;-55
2022/04/25 05:24:05;;;;;;;16.92;12.82;;;;;;;6.25;79.57;100883.25;5093840;28;20048;-54
2022/04/25 05:26:31;;;;;;;21.90;14.30;;;;;;;6.27;80.19;100882.19;5116174;28;20358;-55
2022/04/25 05:28:57;;;;;;;20.00;12.82;;;;;;;6.32;79.74;100887.22;5097260;28;20111;-55
2022/04/25 05:31:22;;;;;;;20.80;14.00;;;;;;;6.33;80.90;100877.50;5077535;28;20066;-55
2022/04/25 05:33:48;;;;;;;21.10;13.35;;;;;;;6.38;81.10;100886.88;5095784;28;20113;-55
2022/04/25 05:36:13;;;;;;;19.23;13.65;;;;;;;6.43;81.14;100892.72;5095616;28;20036;-54
2022/04/25 05:38:38;;;;;;;25.23;14.18;;;;;;;6.46;81.04;100892.56;5096140;28;20373;-55
2022/04/25 05:41:04;;;;;;;19.15;14.48;;;;;;;6.52;81.36;100901.03;5107356;28;20097;-55
2022/04/25 05:43:29;;;;;;;20.98;14.13;;;;;;;6.55;81.78;100909.63;5116430;28;20047;-55
2022/04/25 05:45:54;;;;;;;20.42;14.98;;;;;;;6.62;81.20;100902.19;5079537;28;20047;-54
2022/04/25 05:53:48;;;;;;;28.98;14.82;;;;;;;6.74;81.69;100913.81;5103451;28;20079;-55
2022/04/25 05:56:14;;;;;;;20.95;14.10;;;;;;;6.79;81.37;100915.22;5101370;28;20119;-55
2022/04/25 05:58:39;;;;;;;22.63;15.18;;;;;;;6.83;81.41;100914.13;5117144;28;20460;-56
2022/04/25 06:01:04;;;;;;;23.15;14.43;;;;;;;6.89;81.47;100909.41;5106931;28;20097;-55
2022/04/25 06:03:30;;;;;;;19.95;14.95;;;;;;;6.94;81.46;100923.19;5096147;28;20114;-55
2022/04/25 06:05:55;;;;;;;26.73;15.55;;;;;;;6.99;81.45;100926.41;5095650;28;20032;-54
2022/04/25 06:08:20;;;;;;;20.40;14.40;;;;;;;7.06;81.06;100924.22;5095570;28;20032;-55
2022/04/25 06:10:46;;;;;;;22.77;14.45;;;;;;;7.09;81.10;100930.16;5095383;28;20447;-55
2022/04/25 06:13:13;;;;;;;22.15;14.98;;;;;;;7.13;81.10;100928.22;5109207;28;20474;-55
2022/04/25 06:15:38;;;;;;;18.88;14.60;;;;;;;7.17;81.42;100927.06;5095895;28;20073;-54
2022/04/25 06:18:04;;;;;;;19.17;14.90;;;;;;;7.19;80.92;100936.63;5099318;28;20039;-55
2022/04/25 06:20:30;;;;;;;21.95;15.23;;;;;;;7.23;80.81;100942.56;5112699;28;20036;-54
2022/04/25 06:23:02;;;;;;;22.05;15.75;;;;;;;7.25;81.37;100940.66;5103606;28;20509;-55
2022/04/25 06:25:29;;;;;;;21.85;15.73;;;;;;;7.32;81.30;100938.50;5113456;28;20047;-54
2022/04/25 06:27:57;;;;;;;26.65;15.48;;;;;;;7.36;81.15;100940.00;5114415;28;20035;-54
2022/04/25 06:30:23;;;;;;;21.85;16.20;;;;;;;7.43;81.42;100935.19;5101476;28;20036;-55
2022/04/25 06:32:50;;;;;;;18.60;14.48;;;;;;;7.47;80.55;100940.19;5093463;28;20032;-55
2022/04/25 06:35:15;;;;;;;20.40;15.68;;;;;;;7.52;80.94;100939.91;5092524;28;20040;-55
2022/04/25 06:37:41;;;;;;;20.10;15.82;;;;;;;7.59;80.97;100942.09;5093637;28;20405;-55
2022/04/25 06:40:07;;;;;;;23.25;16.02;;;;;;;7.63;81.06;100936.56;5093384;28;20493;-55
2022/04/25 06:42:32;;;;;;;19.55;15.95;;;;;;;7.68;80.67;100940.66;5093557;28;20040;-55
2022/04/25 06:44:58;;;;;;;22.30;15.68;;;;;;;7.70;80.44;100935.28;5093539;28;20608;-55
2022/04/25 06:47:23;;;;;;;22.35;16.38;;;;;;;7.77;80.24;100933.94;5093559;28;20758;-55
2022/04/25 06:49:48;;;;;;;22.90;15.98;;;;;;;7.84;79.84;100937.03;5093111;28;20040;-55
2022/04/25 06:52:13;;;;;;;24.23;15.70;;;;;;;7.89;79.98;100940.22;5092709;28;20036;-55
2022/04/25 06:54:39;;;;;;;22.90;16.27;;;;;;;7.94;79.35;100936.34;5094307;28;20489;-55
2022/04/25 06:57:05;;;;;;;21.23;15.75;;;;;;;7.99;80.23;100936.03;5091880;28;20032;-54
2022/04/25 06:59:30;;;;;;;22.15;16.73;;;;;;;8.05;79.93;100943.59;5094720;28;20058;-54
2022/04/25 07:01:55;;;;;;;23.63;16.77;;;;;;;8.11;79.81;100948.50;5095439;28;20486;-55
2022/04/25 07:04:21;;;;;;;20.05;15.80;;;;;;;8.17;79.43;100944.59;5092155;28;20140;-55
2022/04/25 07:06:47;;;;;;;21.98;16.92;;;;;;;8.23;79.63;100943.34;5096275;28;20032;-56
2022/04/25 07:09:13;;;;;;;21.65;16.35;;;;;;;8.24;79.51;100948.53;5093410;28;20427;-57
2022/04/25 07:11:43;;;;;;;24.45;16.92;;;;;;;8.24;79.54;100948.53;5092340;28;20085;-54
2022/04/25 07:14:16;;;;;;;23.38;18.08;;;;;;;8.29;79.67;100950.88;5092229;28;20094;-55
2022/04/25 07:16:48;;;;;;;23.92;17.58;;;;;;;8.30;79.19;100950.78;5092694;28;20044;-55
2022/04/25 07:19:14;;;;;;;21.50;17.45;;;;;;;8.35;79.25;100953.13;5092795;28;20040;-54
2022/04/25 07:29:51;;;;;;;22.15;17.60;;;;;;;8.58;80.03;100961.41;5113190;28;20091;-55
2022/04/25 07:32:18;;;;;;;23.05;17.60;;;;;;;8.63;79.66;100962.78;5093760;28;20144;-56
2022/04/25 07:34:46;;;;;;;21.13;16.58;;;;;;;8.69;78.79;100965.03;5092496;28;20260;-56
2022/04/25 07:37:11;;;;;;;22.70;17.52;;;;;;;8.75;79.21;100965.56;5092085;28;20040;-55
2022/04/25 07:39:37;;;;;;;21.80;17.02;;;;;;;8.78;79.30;100962.72;5094171;28;20316;-55
2022/04/25 07:42:04;;;;;;;20.02;17.70;;;;;;;8.83;78.49;100965.91;5093978;28;20043;-55
2022/04/25 07:44:30;;;;;;;23.48;18.45;;;;;;;8.85;78.10;100964.81;5102919;28;20105;-55
2022/04/25 07:46:55;;;;;;;24.52;19.40;;;;;;;8.91;78.38;100970.66;5092489;28;20064;-55
2022/04/25 07:49:21;;;;;;;22.60;18.88;;;;;;;8.94;78.61;100970.47;5091766;28;20501;-54
2022/04/25 07:51:48;;;;;;;22.70;18.63;;;;;;;9.00;77.81;100970.06;5092736;28;20448;-56
2022/04/25 07:54:14;;;;;;;20.98;17.77;;;;;;;9.02;77.79;100976.09;5092299;28;20060;-55
2022/04/25 07:56:40;;;;;;;22.55;19.13;;;;;;;9.07;77.15;100977.47;5100958;28;20052;-56
2022/04/25 07:59:05;;;;;;;23.27;19.20;;;;;;;9.11;77.09;100979.91;5111895;28;20035;-57
2022/04/25 08:01:32;;;;;;;27.38;18.17;;;;;;;9.13;77.35;100984.16;5099807;28;20151;-57
2022/04/25 08:03:57;;;;;;;22.33;18.27;;;;;;;9.15;77.27;100987.53;5072835;28;20492;-54
2022/04/25 08:06:23;;;;;;;26.60;18.80;;;;;;;9.21;76.78;100984.47;5091695;28;20052;-56
2022/04/25 08:08:49;;;;;;;23.83;19.65;;;;;;;9.17;76.92;100990.09;5091563;28;20028;-56
2022/04/25 08:11:15;;;;;;;23.60;17.83;;;;;;;9.19;76.59;100988.19;5090575;28;20496;-55
2022/04/25 08:19:08;;;;;;;22.63;19.30;;;;;;;9.18;76.88;100997.94;5092090;28;20047;-56
2022/04/25 08:21:33;;;;;;;23.83;19.33;;;;;;;9.18;77.21;101000.59;5091713;28;20230;-55
2022/04/25 08:23:58;;;;;;;23.55;20.00;;;;;;;9.17;77.73;101000.69;5092312;28;20095;-55
2022/04/25 08:26:25;;;;;;;22.58;19.25;;;;;;;9.20;77.47;101008.44;5090932;28;20063;-55
2022/04/25 08:28:51;;;;;;;21.98;18.98;;;;;;;9.16;77.67;101012.22;5093147;28;20393;-56
2022/04/25 08:31:16;;;;;;;24.20;19.98;;;;;;;9.12;78.61;101013.41;5076658;28;20036;-55
2022/04/25 08:33:43;;;;;;;22.42;19.35;;;;;;;9.10;79.01;101016.16;5094318;28;20040;-56
2022/04/25 08:36:09;;;;;;;26.42;21.65;;;;;;;9.08;79.51;101015.41;5092402;28;20405;-56
2022/04/25 08:38:34;;;;;;;24.00;21.30;;;;;;;9.07;79.78;101024.31;5090118;28;20032;-56
2022/04/25 08:41:00;;;;;;;27.65;21.20;;;;;;;9.03;80.88;101020.19;5089586;28;20071;-56
2022/04/25 08:43:26;;;;;;;23.88;20.73;;;;;;;9.03;80.80;101026.31;5095005;28;20120;-55
2022/04/25 08:45:53;;;;;;;25.10;21.23;;;;;;;9.04;80.80;101033.34;5103794;28;20528;-55
2022/04/25 08:48:19;;;;;;;27.77;21.63;;;;;;;9.00;81.62;101029.19;5110471;28;20130;-55
2022/04/25 08:50:47;;;;;;;24.27;21.50;;;;;;;8.99;81.56;101032.78;5110564;28;20028;-56
2022/04/25 08:53:13;;;;;;;26.00;21.67;;;;;;;8.99;81.67;101040.75;5105829;28;20040;-55
2022/04/25 08:55:39;;;;;;;27.17;22.85;;;;;;;8.98;82.13;101033.72;5091041;28;20028;-56
2022/04/25 08:58:06;;;;;;;25.17;21.73;;;;;;;8.93;82.27;101040.31;5091109;28;20026;-55
2022/04/25 09:00:31;;;;;;;27.58;23.20;;;;;;;8.94;82.07;101044.63;5090043;28;20058;-56
2022/04/25 09:02:57;;;;;;;24.90;22.25;;;;;;;8.95;82.12;101049.81;5090667;28;20036;-56
2022/04/25 09:05:22;;;;;;;26.38;22.92;;;;;;;8.97;82.60;101055.03;5090078;28;20474;-56
2022/04/25 09:07:48;;;;;;;25.13;21.58;;;;;;;8.98;82.84;101052.28;5090767;28;20077;-55
2022/04/25 09:10:16;;;;;;;25.63;22.50;;;;;;;8.99;82.25;101055.78;5089483;28;20067;-56
2022/04/25 09:12:44;;;;;;;26.10;22.27;;;;;;;9.01;82.14;101062.69;5088896;28;20055;-55
2022/04/25 09:15:09;;;;;;;27.77;22.17;;;;;;;9.00;82.50;101060.97;5089426;28;20036;-55
2022/04/25 09:17:39;;;;;;;25.85;22.67;;;;;;;9.01;82.97;101064.44;5087890;28;20040;-56
2022/04/25 09:20:07;;;;;;;27.08;22.17;;;;;;;9.03;82.14;101062.56;5087654;28;20250;-56
2022/04/25 09:22:41;;;;;;;27.45;23.95;;;;;;;9.02;82.37;101064.34;5087761;28;20127;-56
2022/04/25 09:25:11;;;;;;;27.77;24.27;;;;;;;9.00;83.33;101062.78;5087832;28;20524;-56
2022/04/25 09:27:38;;;;;;;26.08;22.95;;;;;;;9.03;82.59;101075.81;5071367;28;20448;-56
2022/04/25 09:30:20;;;;;;;27.17;23.92;;;;;;;9.05;82.59;101066.81;5087566;28;20028;-55
2022/04/25 09:32:47;;;;;;;27.10;23.52;;;;;;;9.02;82.62;101068.81;5085030;28;20048;-57
2022/04/25 09:35:33;;;;;;;27.50;23.92;;;;;;;9.05;82.42;101076.56;5097991;28;20043;-56
2022/04/25 09:38:05;;;;;;;28.75;25.65;;;;;;;9.00;83.24;101068.91;5099831;28;20071;-55
2022/04/25 09:40:36;;;;;;;29.15;24.98;;;;;;;8.97;83.22;101071.75;5088991;28;20282;-56
2022/04/25 09:43:15;;;;;;;30.90;26.13;;;;;;;9.00;83.59;101068.06;5072604;28;20413;-56
2022/04/25 09:45:42;;;;;;;32.97;25.63;;;;;;;9.03;83.60;101075.81;5072166;28;20080;-57
2022/04/25 09:48:13;;;;;;;32.78;24.20;;;;;;;9.02;84.00;101072.31;5090362;28;20071;-55
2022/04/25 09:50:39;;;;;;;29.50;25.13;;;;;;;9.04;84.10;101075.72;5090327;28;20072;-55
2022/04/25 09:53:05;;;;;;;28.00;25.00;;;;;;;9.03;84.30;101079.31;5090185;28;20471;-56
2022/04/25 09:55:34;;;;;;;29.95;24.98;;;;;;;9.06;84.34;101073.81;5089755;28;20478;-55
2022/04/25 09:58:20;;;;;;;28.90;25.90;;;;;;;9.09;84.21;101072.75;5088428;28;20534;-56
2022/04/25 10:00:47;;;;;;;28.50;25.02;;;;;;;9.12;83.93;101087.59;5097650;28;20044;-56
2022/04/25 10:03:15;;;;;;;30.27;24.40;;;;;;;9.01;84.01;101073.28;5090644;28;20032;-56
2022/04/25 10:05:45;;;;;;;26.42;23.60;;;;;;;9.09;83.43;101096.59;5072380;28;20024;-56
2022/04/25 10:08:12;;;;;;;29.52;23.80;;;;;;;9.08;83.58;101093.09;5089484;28;20486;-56
2022/04/25 10:10:40;;;;;;;25.98;23.15;;;;;;;9.07;83.62;101095.84;5090448;28;20078;-56
2022/04/25 10:13:06;;;;;;;26.57;22.80;;;;;;;9.09;83.34;101096.59;5093792;28;20039;-55
2022/04/25 10:15:31;;;;;;;27.73;23.27;;;;;;;9.08;83.89;101098.41;5093546;28;20409;-56
2022/04/25 10:17:58;;;;;;;24.27;21.67;;;;;;;9.08;83.48;101102.88;5094022;28;20036;-55
2022/04/25 10:20:23;;;;;;;24.90;22.30;;;;;;;9.08;83.34;101100.22;5093379;28;20043;-56
2022/04/25 10:22:49;;;;;;;24.85;22.27;;;;;;;9.05;84.13;101101.25;5093640;28;20032;-56
2022/04/25 10:25:14;;;;;;;23.63;21.23;;;;;;;9.03;83.32;101108.47;5093451;28;20048;-55
2022/04/25 10:27:42;;;;;;;24.53;20.93;;;;;;;9.05;83.81;101103.91;5094032;28;20482;-56
2022/04/25 10:30:15;;;;;;;23.05;20.65;;;;;;;9.09;83.58;101109.84;5097711;28;20327;-56
2022/04/25 10:32:41;;;;;;;23.80;21.30;;;;;;;9.08;84.31;101105.50;5113573;28;20487;-56
2022/04/25 10:35:13;;;;;;;22.73;20.42;;;;;;;9.12;83.96;101111.44;5111320;28;20459;-56
2022/04/25 10:37:40;;;;;;;22.85;20.33;;;;;;;9.12;83.83;101116.75;5113328;28;20896;-56
2022/04/25 10:40:14;;;;;;;22.15;19.88;;;;;;;9.13;82.92;101121.13;5105679;28;20057;-56
2022/04/25 10:45:58;;;;;;;22.92;20.08;;;;;;;9.14;83.20;101134.22;5099463;28;20082;-56
2022/04/25 10:48:24;;;;;;;22.42;19.85;;;;;;;9.15;84.04;101128.00;5094904;28;20090;-56
2022/04/25 10:51:12;;;;;;;22.15;19.85;;;;;;;9.19;83.62;101126.84;5094638;28;20048;-56
2022/04/25 10:54:02;;;;;;;23.45;21.02;;;;;;;9.24;82.92;101132.69;5094206;28;20032;-56
2022/04/25 10:56:29;;;;;;;21.20;19.02;;;;;;;9.22;83.03;101133.75;5085854;28;20047;-56
2022/04/25 10:59:26;;;;;;;20.60;17.80;;;;;;;9.26;82.42;101137.91;5094357;28;20028;-56
2022/04/25 11:01:53;;;;;;;21.42;19.30;;;;;;;9.25;83.72;101137.03;5093879;28;20393;-56
2022/04/25 11:04:20;;;;;;;22.65;20.10;;;;;;;9.23;84.13;101141.59;5093969;28;20036;-56
2022/04/25 11:06:47;;;;;;;21.98;19.67;;;;;;;9.25;83.06;101139.69;5094355;28;20056;-56
2022/04/25 11:09:39;;;;;;;25.42;20.42;;;;;;;9.29;83.52;101140.31;5093555;28;20536;-56
2022/04/25 11:12:05;;;;;;;21.52;19.25;;;;;;;9.28;83.64;101138.63;5092753;28;20062;-56
2022/04/25 11:14:31;;;;;;;22.40;19.92;;;;;;;9.28;83.93;101149.25;5107505;28;20039;-56
2022/04/25 11:17:12;;;;;;;22.35;19.48;;;;;;;9.30;83.28;101143.84;5114338;28;20039;-56
2022/04/25 11:19:48;;;;;;;20.55;18.38;;;;;;;9.26;83.68;101137.91;5087395;28;20044;-56
2022/04/25 11:22:27;;;;;;;21.08;18.88;;;;;;;9.32;82.86;101144.59;5074085;28;20501;-55
2022/04/25 11:24:53;;;;;;;;;;;;;;;9.42;81.13;101154.47;5094501;28;20044;-58
2022/04/25 11:27:20;;;;;;;18.97;16.97;;;;;;;9.33;82.53;101157.75;5093329;28;19919;-56
2022/04/25 11:29:47;;;;;;;19.88;16.92;;;;;;;9.31;82.52;101151.69;5094045;28;20040;-56
2022/04/25 11:32:35;;;;;;;19.73;16.55;;;;;;;9.35;82.36;101152.34;5093704;28;20059;-56
2022/04/25 11:35:02;;;;;;;19.77;17.33;;;;;;;9.31;81.95;101162.31;5093552;28;20036;-57
2022/04/25 11:37:32;;;;;;;18.48;15.65;;;;;;;9.30;82.08;101171.19;5093153;28;20039;-56
2022/04/25 11:40:03;;;;;;;20.08;17.13;;;;;;;9.32;82.55;101161.31;5093185;28;20040;-56
2022/04/25 11:42:31;;;;;;;20.50;18.30;;;;;;;9.34;83.55;101162.09;5092845;28;20044;-56
2022/04/25 11:44:57;;;;;;;19.98;17.83;;;;;;;9.37;83.31;101167.16;5100931;28;20485;-56
2022/04/25 11:47:23;;;;;;;19.55;16.38;;;;;;;9.39;82.53;101170.59;5108313;28;20035;-56
2022/04/25 11:49:55;;;;;;;20.13;17.65;;;;;;;9.41;83.45;101167.84;5112518;28;20097;-57